Austral Downs Airport


Codes: YAUS/AWP
Name: Austral Downs Airport
City:
Country: Australia
Elevation: 0 ft.

Photos at Austral Downs Airport


   Photos courtesy of SpottingLog. You can add your own sightings and photos by signing up for a free trial today.



No photos found.

Weather at Austral Downs Airport


Time (UTC)DescriptionTempratureWindCloud coverageVisibilityPressureHumidity
15-Apr-2024 18:00Broken Clouds27°C16 mph, S83%10000m1016hPa29%
15-Apr-2024 21:00Broken Clouds26°C13 mph, S54%10000m1017hPa31%
16-Apr-2024 00:00Scattered Clouds29°C13 mph, SE44%10000m1018hPa27%
16-Apr-2024 03:00Few Clouds33°C11 mph, SE15%10000m1015hPa23%
16-Apr-2024 06:00Few Clouds35°C11 mph, SE17%10000m1012hPa20%
16-Apr-2024 09:00Clear Sky33°C11 mph, SE5%10000m1013hPa23%
16-Apr-2024 12:00Clear Sky30°C11 mph, S4%10000m1015hPa28%
16-Apr-2024 15:00Scattered Clouds28°C18 mph, S28%10000m1015hPa33%
16-Apr-2024 18:00Scattered Clouds26°C18 mph, S37%10000m1014hPa37%
16-Apr-2024 21:00Scattered Clouds25°C18 mph, S26%10000m1015hPa40%
17-Apr-2024 00:00Few Clouds30°C18 mph, SE16%10000m1016hPa42%
17-Apr-2024 03:00Broken Clouds34°C13 mph, SE54%10000m1013hPa34%
17-Apr-2024 06:00Broken Clouds34°C13 mph, SE78%10000m1011hPa27%
17-Apr-2024 09:00Overcast Clouds32°C11 mph, E98%10000m1012hPa35%
17-Apr-2024 12:00Overcast Clouds30°C11 mph, E98%10000m1014hPa46%
17-Apr-2024 15:00Broken Clouds30°C9 mph, SE60%10000m1014hPa42%
17-Apr-2024 18:00Scattered Clouds27°C18 mph, SE48%10000m1013hPa36%
17-Apr-2024 21:00Scattered Clouds25°C16 mph, SE45%10000m1015hPa39%
18-Apr-2024 00:00Broken Clouds29°C20 mph, SE61%10000m1016hPa38%
18-Apr-2024 03:00Broken Clouds33°C16 mph, SE65%10000m1013hPa29%
18-Apr-2024 06:00Broken Clouds35°C18 mph, SE61%10000m1011hPa24%
18-Apr-2024 09:00Broken Clouds31°C18 mph, S56%10000m1012hPa30%
18-Apr-2024 12:00Broken Clouds29°C22 mph, SE76%10000m1014hPa28%
18-Apr-2024 15:00Overcast Clouds27°C22 mph, SE99%10000m1015hPa29%
18-Apr-2024 18:00Overcast Clouds24°C22 mph, SE100%10000m1014hPa27%
18-Apr-2024 21:00Broken Clouds23°C20 mph, SE63%10000m1016hPa30%
19-Apr-2024 00:00Broken Clouds26°C25 mph, SE70%10000m1017hPa24%
19-Apr-2024 03:00Overcast Clouds30°C22 mph, SE100%10000m1015hPa20%
19-Apr-2024 06:00Overcast Clouds31°C22 mph, SE98%10000m1013hPa18%
19-Apr-2024 09:00Few Clouds28°C20 mph, SE23%10000m1014hPa19%
19-Apr-2024 12:00Scattered Clouds25°C20 mph, SE46%10000m1016hPa16%
19-Apr-2024 15:00Overcast Clouds22°C20 mph, SE100%10000m1016hPa18%
19-Apr-2024 18:00Overcast Clouds21°C20 mph, SE95%10000m1016hPa24%
19-Apr-2024 21:00Overcast Clouds19°C20 mph, SE100%10000m1017hPa27%
20-Apr-2024 00:00Overcast Clouds23°C25 mph, SE100%10000m1018hPa22%
20-Apr-2024 03:00Overcast Clouds28°C20 mph, SE100%10000m1016hPa15%
20-Apr-2024 06:00Overcast Clouds29°C20 mph, SE100%10000m1013hPa13%
20-Apr-2024 09:00Clear Sky26°C18 mph, SE5%10000m1015hPa13%
20-Apr-2024 12:00Clear Sky24°C18 mph, SE3%10000m1017hPa19%
20-Apr-2024 15:00Clear Sky22°C20 mph, SE1%10000m1016hPa26%